createdAt,value
2022-09-10T00:03:22.235Z,100364.20
2022-09-10T00:08:25.081Z,100367.23
2022-09-10T00:13:27.838Z,100368.59
2022-09-10T00:18:31.320Z,100366.66
2022-09-10T00:23:35.217Z,100360.02
2022-09-10T00:28:38.383Z,100358.73
2022-09-10T00:33:42.115Z,100358.33
2022-09-10T00:38:45.247Z,100361.10
2022-09-10T00:43:53.906Z,100365.87
2022-09-10T00:48:59.086Z,100367.83
2022-09-10T00:54:03.901Z,100358.13
2022-09-10T00:59:10.220Z,100358.57
2022-09-10T01:04:13.202Z,100361.63
2022-09-10T01:09:16.276Z,100355.86
2022-09-10T01:14:32.494Z,100356.00
2022-09-10T01:19:53.746Z,100343.86
2022-09-10T01:25:05.080Z,100345.64
2022-09-10T01:30:09.820Z,100337.84
2022-09-10T01:35:18.747Z,100334.01
2022-09-10T01:40:30.137Z,100319.61
2022-09-10T01:45:47.835Z,100308.08
2022-09-10T01:51:34.519Z,100304.58
2022-09-10T01:56:53.505Z,100303.80
2022-09-10T02:02:04.147Z,100313.58
2022-09-10T02:07:07.695Z,100316.29
2022-09-10T02:12:19.762Z,100314.83
2022-09-10T02:17:28.383Z,100312.13
2022-09-10T02:22:33.941Z,100310.09
2022-09-10T02:27:38.374Z,100310.14
2022-09-10T02:32:41.161Z,100305.41
2022-09-10T02:37:43.949Z,100297.17
2022-09-10T02:42:47.196Z,100299.87
2022-09-10T02:47:50.163Z,100300.54
2022-09-10T02:52:53.986Z,100294.45
2022-09-10T02:57:56.795Z,100294.25
2022-09-10T03:03:02.954Z,100286.31
2022-09-10T03:08:06.787Z,100272.95
2022-09-10T03:13:09.567Z,100276.54
2022-09-10T03:18:13.013Z,100284.13
2022-09-10T03:23:16.377Z,100283.00
2022-09-10T03:28:20.252Z,100276.69
2022-09-10T03:33:23.050Z,100272.07
2022-09-10T03:38:27.150Z,100271.79
2022-09-10T03:43:30.638Z,100268.84
2022-09-10T03:48:33.403Z,100266.65
2022-09-10T03:53:36.546Z,100263.15
2022-09-10T03:58:39.284Z,100257.65
2022-09-10T04:03:42.308Z,100247.67
2022-09-10T04:08:49.759Z,100243.26
2022-09-10T04:13:53.014Z,100247.02
2022-09-10T04:18:55.789Z,100242.53
2022-09-10T04:24:00.865Z,100240.80
2022-09-10T04:29:04.021Z,100236.94
2022-09-10T04:34:07.830Z,100237.13
2022-09-10T04:39:10.701Z,100237.51
2022-09-10T04:44:13.841Z,100237.22
2022-09-10T04:49:16.468Z,100240.77
2022-09-10T04:54:19.861Z,100239.68
2022-09-10T04:59:22.688Z,100235.38
2022-09-10T05:04:25.623Z,100238.98
2022-09-10T05:09:34.307Z,100237.49
2022-09-10T05:14:38.136Z,100236.49
2022-09-10T05:19:40.987Z,100233.95
2022-09-10T05:24:44.318Z,100233.89
2022-09-10T05:29:47.086Z,100236.02
2022-09-10T05:34:49.931Z,100232.30
2022-09-10T05:39:52.754Z,100225.73
2022-09-10T05:44:55.594Z,100220.86
2022-09-10T05:49:58.374Z,100221.74
2022-09-10T05:55:01.194Z,100225.00
2022-09-10T06:00:08.077Z,100223.93
2022-09-10T06:05:10.909Z,100219.73
2022-09-10T06:10:14.586Z,100226.02
2022-09-10T06:15:17.917Z,100229.65
2022-09-10T06:20:20.758Z,100234.55
2022-09-10T06:25:24.232Z,100234.67
2022-09-10T06:30:27.096Z,100238.30
2022-09-10T06:35:29.965Z,100238.88
2022-09-10T06:40:33.236Z,100240.14
2022-09-10T06:45:40.146Z,100246.70
2022-09-10T06:50:51.239Z,100246.13
2022-09-10T06:55:54.130Z,100251.27
2022-09-10T07:00:57.005Z,100254.70
2022-09-10T07:06:04.407Z,100255.64
2022-09-10T07:11:13.009Z,100267.06
2022-09-10T07:16:25.921Z,100267.25
2022-09-10T07:21:29.194Z,100269.58
2022-09-10T07:26:32.129Z,100264.23
2022-09-10T07:31:35.562Z,100261.17
2022-09-10T07:36:38.285Z,100256.42
2022-09-10T07:41:41.033Z,100247.61
2022-09-10T07:46:43.954Z,100242.99
2022-09-10T07:51:47.142Z,100241.26
2022-09-10T07:56:50.244Z,100244.87
2022-09-10T08:01:52.981Z,100250.18
2022-09-10T08:06:56.900Z,100254.48
2022-09-10T08:11:59.990Z,100253.46
2022-09-10T08:17:02.838Z,100251.80
2022-09-10T08:22:09.143Z,100249.73
2022-09-10T08:27:16.544Z,100251.42
2022-09-10T08:32:19.502Z,100256.89
2022-09-10T08:37:22.264Z,100252.96
2022-09-10T08:42:33.722Z,100246.47
2022-09-10T08:47:44.735Z,100239.60
2022-09-10T08:52:53.511Z,100230.41
2022-09-10T08:58:01.078Z,100232.12
2022-09-10T09:03:45.412Z,100234.77
2022-09-10T09:08:50.275Z,100233.08
2022-09-10T09:14:21.635Z,100235.73
2022-09-10T09:19:53.444Z,100237.39
2022-09-10T09:25:05.275Z,100236.02
2022-09-10T09:30:37.297Z,100237.02
2022-09-10T09:35:53.229Z,100233.00
2022-09-10T09:40:59.239Z,100228.28
2022-09-10T09:46:03.043Z,100224.65
2022-09-10T09:51:11.694Z,100226.97
2022-09-10T09:56:25.096Z,100226.54
2022-09-10T10:01:29.088Z,100224.00
2022-09-10T10:06:47.352Z,100217.92
2022-09-10T10:11:56.074Z,100217.91
2022-09-10T10:17:00.979Z,100220.03
2022-09-10T10:22:19.460Z,100226.28
2022-09-10T10:27:30.075Z,100223.31
2022-09-10T10:32:44.829Z,100214.15
2022-09-10T10:38:01.060Z,100213.04
2022-09-10T10:43:54.733Z,100222.48
2022-09-10T10:49:25.945Z,100217.00
2022-09-10T10:54:47.777Z,100216.10
2022-09-10T11:00:04.582Z,100213.52
2022-09-10T11:05:18.496Z,100212.23
2022-09-10T11:10:42.784Z,100208.45
2022-09-10T11:15:59.625Z,100212.07
2022-09-10T11:21:30.079Z,100204.17
2022-09-10T11:26:58.161Z,100205.08
2022-09-10T11:32:27.169Z,100206.58
2022-09-10T11:37:43.462Z,100205.48
2022-09-10T11:42:52.408Z,100201.48
2022-09-10T11:48:14.864Z,100197.35
2022-09-10T11:53:22.072Z,100192.61
2022-09-10T11:58:34.971Z,100195.02
2022-09-10T12:03:49.657Z,100198.73
2022-09-10T12:09:01.738Z,100192.95
2022-09-10T12:14:13.650Z,100187.85
2022-09-10T12:19:38.788Z,100183.09
2022-09-10T12:24:55.700Z,100174.61
2022-09-10T12:30:36.347Z,100174.71
2022-09-10T12:35:50.958Z,100165.86
2022-09-10T12:40:55.823Z,100170.55
2022-09-10T12:46:12.193Z,100166.77
2022-09-10T12:51:18.122Z,100163.05
2022-09-10T12:56:29.981Z,100168.51
2022-09-10T13:01:46.378Z,100164.86
2022-09-10T13:06:49.661Z,100158.75
2022-09-10T13:11:56.965Z,100147.36
2022-09-10T13:16:59.867Z,100143.23
2022-09-10T13:22:03.701Z,100141.38
2022-09-10T13:27:36.511Z,100147.38
2022-09-10T13:32:44.437Z,100150.63
2022-09-10T13:38:08.898Z,100146.44
2022-09-10T13:43:23.516Z,100135.95
2022-09-10T13:48:30.825Z,100129.25
2022-09-10T13:53:35.197Z,100127.26
2022-09-10T13:58:42.514Z,100130.21
2022-09-10T14:03:45.548Z,100128.45
2022-09-10T14:09:03.231Z,100129.85
2022-09-10T14:14:11.352Z,100123.59
2022-09-10T14:19:30.592Z,100123.92
2022-09-10T14:24:36.116Z,100119.58
2022-09-10T14:29:39.398Z,100106.72
2022-09-10T14:34:42.263Z,100106.23
2022-09-10T14:39:45.055Z,100106.08
2022-09-10T14:44:47.945Z,100111.58
2022-09-10T14:49:52.344Z,100100.00
2022-09-10T14:54:56.272Z,100107.58
2022-09-10T15:00:00.057Z,100099.89
2022-09-10T15:05:02.962Z,100101.89
2022-09-10T15:10:05.984Z,100098.09
2022-09-10T15:15:17.589Z,100098.51
2022-09-10T15:20:27.135Z,100100.03
2022-09-10T15:25:38.731Z,100106.28
2022-09-10T15:30:41.754Z,100102.66
2022-09-10T15:35:44.471Z,100107.34
2022-09-10T15:40:49.823Z,100105.14
2022-09-10T15:45:52.667Z,100104.11
2022-09-10T15:50:56.475Z,100101.77
2022-09-10T15:56:04.976Z,100098.98
2022-09-10T16:01:12.563Z,100099.13
2022-09-10T16:06:15.930Z,100102.86
2022-09-10T16:11:20.492Z,100103.76
2022-09-10T16:16:26.836Z,100097.84
2022-09-10T16:21:32.288Z,100099.48
2022-09-10T16:26:38.403Z,100094.61
2022-09-10T16:31:43.043Z,100094.44
2022-09-10T16:36:48.967Z,100090.03
2022-09-10T16:41:52.336Z,100088.20
2022-09-10T16:46:57.718Z,100081.11
2022-09-10T16:52:00.560Z,100075.34
2022-09-10T16:57:03.473Z,100075.54
2022-09-10T17:02:07.637Z,100073.82
2022-09-10T17:07:10.579Z,100071.14
2022-09-10T17:12:13.223Z,100066.19
2022-09-10T17:17:16.009Z,100064.36
2022-09-10T17:22:18.860Z,100069.28
2022-09-10T17:27:25.390Z,100066.23
2022-09-10T17:32:28.766Z,100067.93
2022-09-10T17:37:32.479Z,100071.92
2022-09-10T17:42:35.284Z,100069.58
2022-09-10T17:47:39.308Z,100065.45
2022-09-10T17:52:45.998Z,100058.17
2022-09-10T17:57:49.318Z,100051.17
2022-09-10T18:02:53.370Z,100052.88
2022-09-10T18:07:56.607Z,100050.30
2022-09-10T18:13:00.536Z,100051.80
2022-09-10T18:18:03.446Z,100054.23
2022-09-10T18:23:07.116Z,100058.80
2022-09-10T18:28:09.928Z,100062.77
2022-09-10T18:33:14.013Z,100058.98
2022-09-10T18:38:16.811Z,100054.02
2022-09-10T18:43:20.252Z,100052.55
2022-09-10T18:48:23.042Z,100060.48
2022-09-10T18:53:25.829Z,100060.11
2022-09-10T18:58:28.626Z,100054.77
2022-09-10T19:03:35.562Z,100053.50
2022-09-10T19:08:39.874Z,100055.23
2022-09-10T19:13:42.614Z,100055.20
2022-09-10T19:18:56.352Z,100051.58
2022-09-10T19:24:03.864Z,100049.59
2022-09-10T19:29:07.143Z,100050.77
2022-09-10T19:34:12.147Z,100048.79
2022-09-10T19:39:17.091Z,100048.27
2022-09-10T19:44:20.278Z,100045.88
2022-09-10T19:49:23.001Z,100040.66
2022-09-10T19:54:28.336Z,100042.94
2022-09-10T19:59:31.123Z,100051.20
2022-09-10T20:04:38.169Z,100046.10
2022-09-10T20:09:41.026Z,100041.42
2022-09-10T20:14:43.816Z,100034.37
2022-09-10T20:19:46.590Z,100032.04
2022-09-10T20:24:49.324Z,100020.30
2022-09-10T20:29:52.169Z,100014.80
2022-09-10T20:34:56.588Z,100015.73
2022-09-10T20:39:59.387Z,100012.30
2022-09-10T20:45:02.708Z,100011.11
2022-09-10T20:50:06.620Z,100006.15
2022-09-10T20:55:09.608Z,100007.30
2022-09-10T21:00:13.224Z,100005.89
2022-09-10T21:05:16.233Z,100004.01
2022-09-10T21:10:19.193Z,100002.63
2022-09-10T21:15:22.016Z,100000.09
2022-09-10T21:20:24.785Z,99997.20
2022-09-10T21:25:28.195Z,99992.45
2022-09-10T21:30:31.244Z,99987.75
2022-09-10T21:35:34.407Z,99991.64
2022-09-10T21:40:37.241Z,99989.62
2022-09-10T21:45:40.031Z,99985.90
2022-09-10T21:50:42.781Z,99988.59
2022-09-10T21:55:45.628Z,99989.30
2022-09-10T22:00:48.496Z,99981.90
2022-09-10T22:05:51.375Z,99980.20
2022-09-10T22:10:54.289Z,99979.91
2022-09-10T22:15:58.471Z,99975.13
2022-09-10T22:21:02.255Z,99975.95
2022-09-10T22:26:07.256Z,99971.74
2022-09-10T22:31:13.348Z,99967.36
2022-09-10T22:36:28.971Z,99965.61
2022-09-10T22:41:34.169Z,99963.25
2022-09-10T22:46:38.112Z,99965.14
2022-09-10T22:51:41.221Z,99966.45
2022-09-10T22:56:44.833Z,99957.33
2022-09-10T23:01:47.873Z,99947.26
2022-09-10T23:06:50.837Z,99943.20
2022-09-10T23:11:54.344Z,99940.55
2022-09-10T23:16:57.093Z,99935.59
2022-09-10T23:21:59.873Z,99927.67
2022-09-10T23:27:04.021Z,99926.77
2022-09-10T23:32:07.002Z,99921.79
2022-09-10T23:37:10.310Z,99919.02
2022-09-10T23:42:13.101Z,99912.42
2022-09-10T23:47:15.893Z,99913.17
2022-09-10T23:52:19.350Z,99912.11
2022-09-10T23:57:22.176Z,99910.45
